createdAt,value
2022-10-20T05:33:10.925Z,27.42
2022-10-20T05:36:19.306Z,27.60
2022-10-20T05:39:23.505Z,29.13
2022-10-20T05:42:25.408Z,31.60
2022-10-20T05:45:27.068Z,32.53
2022-10-20T05:48:28.941Z,28.48
2022-10-20T05:51:34.294Z,29.65
2022-10-20T05:54:36.665Z,26.42
2022-10-20T05:57:38.355Z,24.38
2022-10-20T06:00:51.868Z,26.80
2022-10-20T06:03:57.965Z,25.73
2022-10-20T06:06:59.840Z,23.70
2022-10-20T06:10:03.143Z,24.77
2022-10-20T06:49:23.154Z,22.77
2022-10-20T06:52:25.308Z,20.00
2022-10-20T06:55:27.607Z,20.90
2022-10-20T06:58:30.086Z,18.40
2022-10-20T07:01:35.018Z,18.10
2022-10-20T07:04:36.850Z,16.15
2022-10-20T07:07:39.006Z,15.93
2022-10-20T07:10:40.752Z,16.98
2022-10-20T07:13:43.458Z,15.02
2022-10-20T07:16:45.510Z,14.50
2022-10-20T07:19:47.364Z,13.98
2022-10-20T07:22:49.400Z,14.13
2022-10-20T07:25:51.239Z,13.68
2022-10-20T07:28:57.444Z,14.23
2022-10-20T07:32:01.414Z,13.05
2022-10-20T07:35:05.934Z,13.25
2022-10-20T07:38:10.167Z,12.05
2022-10-20T07:41:14.160Z,12.77
2022-10-20T07:44:17.245Z,12.02
2022-10-20T07:47:19.903Z,11.38
2022-10-20T07:50:21.723Z,11.00
2022-10-20T07:53:24.904Z,10.82
2022-10-20T07:56:35.257Z,11.65
2022-10-20T07:59:43.561Z,10.88
2022-10-20T08:02:47.175Z,9.45
2022-10-20T08:05:50.281Z,9.45
2022-10-20T08:08:53.125Z,10.13
2022-10-20T08:11:56.027Z,10.40
2022-10-20T08:15:00.057Z,8.43
2022-10-20T08:18:02.402Z,8.35
2022-10-20T08:21:16.974Z,8.93
2022-10-20T08:24:18.835Z,8.70
2022-10-20T08:27:24.000Z,8.40
2022-10-20T08:30:28.454Z,6.97
2022-10-20T08:33:30.946Z,7.55
2022-10-20T08:36:42.060Z,7.28
2022-10-20T08:39:44.422Z,6.82
2022-10-20T08:42:48.432Z,7.03
2022-10-20T08:45:52.683Z,7.18
2022-10-20T08:48:57.357Z,7.25
2022-10-20T08:52:01.251Z,6.65
2022-10-20T08:55:08.794Z,7.93
2022-10-20T08:58:20.462Z,8.95
2022-10-20T09:01:26.401Z,7.80
2022-10-20T09:04:36.316Z,7.65
2022-10-20T09:07:42.228Z,7.15
2022-10-20T09:10:49.666Z,9.05
2022-10-20T09:13:53.483Z,9.10
2022-10-20T09:17:00.206Z,9.00
2022-10-20T09:20:04.734Z,10.80
2022-10-20T09:23:28.210Z,13.63
2022-10-20T09:30:22.773Z,9.73
2022-10-20T09:33:30.666Z,12.85
2022-10-20T09:37:13.425Z,9.07
2022-10-20T09:40:22.958Z,9.85
2022-10-20T09:43:28.498Z,10.13
2022-10-20T09:46:39.003Z,9.10
2022-10-20T09:49:44.318Z,10.13
2022-10-20T09:52:48.104Z,10.70
2022-10-20T09:55:51.720Z,9.60
2022-10-20T09:58:54.805Z,10.55
2022-10-20T10:02:01.055Z,9.13
2022-10-20T10:05:20.625Z,8.82
2022-10-20T10:08:25.538Z,8.73
2022-10-20T10:14:53.496Z,7.95
2022-10-20T10:17:55.939Z,8.68
2022-10-20T10:21:02.528Z,9.05
2022-10-20T10:24:06.456Z,10.00
2022-10-20T10:27:30.561Z,8.60
2022-10-20T10:30:35.387Z,8.45
2022-10-20T10:33:40.476Z,7.38
2022-10-20T10:39:45.605Z,8.75
2022-10-20T10:43:29.985Z,10.30
2022-10-20T10:46:40.502Z,5.88
2022-10-20T10:50:09.912Z,6.63
2022-10-20T10:53:34.373Z,5.97
2022-10-20T10:56:46.731Z,6.63
2022-10-20T10:59:51.821Z,6.18
2022-10-20T11:06:30.771Z,7.13
2022-10-20T11:09:58.247Z,7.45
2022-10-20T11:13:26.159Z,6.70
2022-10-20T11:16:40.330Z,5.55
2022-10-20T11:20:10.358Z,6.80
2022-10-20T11:23:51.941Z,7.80
2022-10-20T11:27:01.734Z,7.25
2022-10-20T11:30:16.667Z,7.43
2022-10-20T11:33:24.474Z,6.90
2022-10-20T11:36:30.583Z,6.93
2022-10-20T11:39:59.039Z,7.97
2022-10-20T11:43:24.015Z,6.68
2022-10-20T11:46:36.335Z,7.13
2022-10-20T11:49:40.331Z,6.95
2022-10-20T11:53:22.041Z,6.38
2022-10-20T11:56:38.965Z,7.80
2022-10-20T12:00:04.605Z,7.57
2022-10-20T12:03:34.683Z,7.00
2022-10-20T12:06:48.841Z,7.55
2022-10-20T12:10:30.755Z,7.50
2022-10-20T12:13:59.494Z,7.68
2022-10-20T12:17:24.357Z,7.65
2022-10-20T12:20:27.028Z,8.27
2022-10-20T12:23:46.133Z,7.63
2022-10-20T12:27:06.109Z,8.05
2022-10-20T12:30:43.999Z,7.97
2022-10-20T12:33:53.541Z,8.20
2022-10-20T12:37:08.750Z,9.02
2022-10-20T12:40:12.893Z,8.20
2022-10-20T12:43:44.850Z,9.10
2022-10-20T12:47:03.882Z,8.32
2022-10-20T12:50:18.263Z,7.43
2022-10-20T12:53:27.526Z,8.52
2022-10-20T12:56:36.879Z,8.57
2022-10-20T12:59:39.826Z,8.50
2022-10-20T13:02:49.777Z,9.88
2022-10-20T13:05:51.769Z,9.27
2022-10-20T13:09:17.081Z,9.93
2022-10-20T13:12:28.954Z,9.65
2022-10-20T13:15:42.879Z,8.95
2022-10-20T13:18:46.914Z,8.68
2022-10-20T13:21:50.408Z,9.35
2022-10-20T13:24:55.935Z,9.35
2022-10-20T13:28:13.924Z,9.02
2022-10-20T13:31:32.838Z,8.27
2022-10-20T13:34:57.328Z,7.50
2022-10-20T13:38:08.132Z,8.43
2022-10-20T13:41:38.079Z,9.07
2022-10-20T13:44:54.513Z,10.05
2022-10-20T13:48:10.044Z,8.80
2022-10-20T13:54:27.366Z,9.13
2022-10-20T13:57:31.447Z,10.38
2022-10-20T14:00:36.189Z,11.40
2022-10-20T14:03:44.537Z,9.82
2022-10-20T14:06:47.341Z,8.05
2022-10-20T14:09:58.186Z,10.13
2022-10-20T14:13:02.244Z,10.00
2022-10-20T14:16:07.414Z,10.18
2022-10-20T14:22:18.855Z,8.20
2022-10-20T14:25:22.151Z,8.48
2022-10-20T14:28:25.611Z,8.15
2022-10-20T14:31:27.495Z,8.40
2022-10-20T14:34:34.009Z,8.60
2022-10-20T14:37:40.530Z,8.73
2022-10-20T14:40:50.697Z,9.57
2022-10-20T14:43:56.581Z,9.40
2022-10-20T14:47:04.521Z,10.10
2022-10-20T14:50:06.815Z,10.18
2022-10-20T14:53:18.117Z,9.52
2022-10-20T14:56:25.535Z,8.27
2022-10-20T14:59:30.068Z,9.10
2022-10-20T15:02:40.160Z,7.60
2022-10-20T15:05:44.994Z,6.75
2022-10-20T15:08:57.637Z,6.75
2022-10-20T15:12:05.709Z,7.50
2022-10-20T15:15:21.212Z,6.60
2022-10-20T15:21:29.323Z,7.82
2022-10-20T15:24:31.023Z,7.35
2022-10-20T15:27:32.789Z,7.97
2022-10-20T15:30:34.789Z,7.38
2022-10-20T15:33:36.611Z,7.28
2022-10-20T15:36:41.934Z,7.97
2022-10-20T15:39:44.496Z,6.30
2022-10-20T15:42:46.431Z,6.97
2022-10-20T15:45:54.574Z,7.18
2022-10-20T15:48:56.191Z,6.55
2022-10-20T15:51:57.925Z,7.47
2022-10-20T15:54:59.514Z,7.45
2022-10-20T15:58:01.741Z,6.85
